sensor_id;sensor_type;location;lat;lon;timestamp;temperature;humidity
65568;DHT22;52211;50.154;8.682;2023-02-24T00:00:12;12.40;62.60
65568;DHT22;52211;50.154;8.682;2023-02-24T00:03:03;12.40;62.70
65568;DHT22;52211;50.154;8.682;2023-02-24T00:05:39;12.40;62.70
65568;DHT22;52211;50.154;8.682;2023-02-24T00:08:10;12.40;62.70
65568;DHT22;52211;50.154;8.682;2023-02-24T00:10:42;12.30;62.60
65568;DHT22;52211;50.154;8.682;2023-02-24T00:13:12;12.30;62.70
65568;DHT22;52211;50.154;8.682;2023-02-24T00:15:41;12.30;62.70
65568;DHT22;52211;50.154;8.682;2023-02-24T00:18:10;12.30;62.70
65568;DHT22;52211;50.154;8.682;2023-02-24T00:20:40;12.30;62.80
65568;DHT22;52211;50.154;8.682;2023-02-24T00:23:09;12.30;62.90
65568;DHT22;52211;50.154;8.682;2023-02-24T00:25:35;12.30;62.90
65568;DHT22;52211;50.154;8.682;2023-02-24T00:28:03;12.30;62.90
65568;DHT22;52211;50.154;8.682;2023-02-24T00:30:32;12.30;62.90
65568;DHT22;52211;50.154;8.682;2023-02-24T00:33:06;12.30;62.90
65568;DHT22;52211;50.154;8.682;2023-02-24T00:35:33;12.30;62.90
65568;DHT22;52211;50.154;8.682;2023-02-24T00:38:03;12.30;62.90
65568;DHT22;52211;50.154;8.682;2023-02-24T00:40:34;12.30;63.00
65568;DHT22;52211;50.154;8.682;2023-02-24T00:43:05;12.30;63.00
65568;DHT22;52211;50.154;8.682;2023-02-24T00:45:39;12.30;62.90
65568;DHT22;52211;50.154;8.682;2023-02-24T00:48:09;12.30;63.00
65568;DHT22;52211;50.154;8.682;2023-02-24T00:50:38;12.30;62.80
65568;DHT22;52211;50.154;8.682;2023-02-24T00:53:05;12.30;62.80
65568;DHT22;52211;50.154;8.682;2023-02-24T00:55:36;12.20;62.60
65568;DHT22;52211;50.154;8.682;2023-02-24T00:58:03;12.20;62.70
65568;DHT22;52211;50.154;8.682;2023-02-24T01:00:32;12.20;62.60
65568;DHT22;52211;50.154;8.682;2023-02-24T01:03:02;12.10;62.60
65568;DHT22;52211;50.154;8.682;2023-02-24T01:05:36;12.10;62.70
65568;DHT22;52211;50.154;8.682;2023-02-24T01:08:06;12.10;62.70
65568;DHT22;52211;50.154;8.682;2023-02-24T01:10:35;12.10;62.70
65568;DHT22;52211;50.154;8.682;2023-02-24T01:13:04;12.10;62.80
65568;DHT22;52211;50.154;8.682;2023-02-24T01:15:36;12.00;62.80
65568;DHT22;52211;50.154;8.682;2023-02-24T01:18:03;12.00;62.80
65568;DHT22;52211;50.154;8.682;2023-02-24T01:20:33;12.00;62.80
65568;DHT22;52211;50.154;8.682;2023-02-24T01:23:05;12.00;62.80
65568;DHT22;52211;50.154;8.682;2023-02-24T01:25:37;12.00;62.90
65568;DHT22;52211;50.154;8.682;2023-02-24T01:28:04;12.00;62.90
65568;DHT22;52211;50.154;8.682;2023-02-24T01:30:32;12.00;62.80
65568;DHT22;52211;50.154;8.682;2023-02-24T01:33:02;12.00;62.80
65568;DHT22;52211;50.154;8.682;2023-02-24T01:35:33;12.00;62.90
65568;DHT22;52211;50.154;8.682;2023-02-24T01:38:03;12.00;62.90
65568;DHT22;52211;50.154;8.682;2023-02-24T01:40:33;12.00;62.90
65568;DHT22;52211;50.154;8.682;2023-02-24T01:43:02;12.00;62.90
65568;DHT22;52211;50.154;8.682;2023-02-24T01:45:34;12.00;62.90
65568;DHT22;52211;50.154;8.682;2023-02-24T01:48:08;12.00;62.80
65568;DHT22;52211;50.154;8.682;2023-02-24T01:50:39;12.00;62.90
65568;DHT22;52211;50.154;8.682;2023-02-24T01:53:08;12.00;62.80
65568;DHT22;52211;50.154;8.682;2023-02-24T01:55:48;12.00;62.80
65568;DHT22;52211;50.154;8.682;2023-02-24T01:58:24;12.00;62.90
65568;DHT22;52211;50.154;8.682;2023-02-24T02:00:57;12.00;62.90
65568;DHT22;52211;50.154;8.682;2023-02-24T02:03:37;12.00;62.90
65568;DHT22;52211;50.154;8.682;2023-02-24T02:06:10;12.00;62.90
65568;DHT22;52211;50.154;8.682;2023-02-24T02:08:40;12.00;62.90
65568;DHT22;52211;50.154;8.682;2023-02-24T02:11:13;12.00;62.90
65568;DHT22;52211;50.154;8.682;2023-02-24T02:13:53;12.00;62.90
65568;DHT22;52211;50.154;8.682;2023-02-24T02:22:18;11.90;62.80
65568;DHT22;52211;50.154;8.682;2023-02-24T02:34:46;12.00;62.80
65568;DHT22;52211;50.154;8.682;2023-02-24T02:37:30;11.90;62.80
65568;DHT22;52211;50.154;8.682;2023-02-24T02:40:52;11.90;62.80
65568;DHT22;52211;50.154;8.682;2023-02-24T02:46:06;11.90;62.80
65568;DHT22;52211;50.154;8.682;2023-02-24T02:48:55;11.90;62.90
65568;DHT22;52211;50.154;8.682;2023-02-24T02:51:37;11.90;62.80
65568;DHT22;52211;50.154;8.682;2023-02-24T02:54:39;11.90;62.90
65568;DHT22;52211;50.154;8.682;2023-02-24T02:57:30;11.90;63.00
65568;DHT22;52211;50.154;8.682;2023-02-24T03:00:07;11.90;63.00
65568;DHT22;52211;50.154;8.682;2023-02-24T03:02:56;11.90;62.90
65568;DHT22;52211;50.154;8.682;2023-02-24T03:05:33;11.90;62.90
65568;DHT22;52211;50.154;8.682;2023-02-24T03:08:19;11.90;62.90
65568;DHT22;52211;50.154;8.682;2023-02-24T03:10:53;11.90;62.90
65568;DHT22;52211;50.154;8.682;2023-02-24T03:13:27;11.90;62.90
65568;DHT22;52211;50.154;8.682;2023-02-24T03:16:03;11.90;62.90
65568;DHT22;52211;50.154;8.682;2023-02-24T03:18:37;11.90;62.80
65568;DHT22;52211;50.154;8.682;2023-02-24T03:21:23;11.90;62.80
65568;DHT22;52211;50.154;8.682;2023-02-24T03:23:54;11.90;62.80
65568;DHT22;52211;50.154;8.682;2023-02-24T03:35:04;11.90;62.80
65568;DHT22;52211;50.154;8.682;2023-02-24T03:37:44;11.90;62.90
65568;DHT22;52211;50.154;8.682;2023-02-24T03:40:17;11.90;62.90
65568;DHT22;52211;50.154;8.682;2023-02-24T03:42:50;11.90;62.90
65568;DHT22;52211;50.154;8.682;2023-02-24T03:45:29;11.90;62.90
65568;DHT22;52211;50.154;8.682;2023-02-24T03:47:57;11.80;62.80
65568;DHT22;52211;50.154;8.682;2023-02-24T03:50:28;11.90;62.90
65568;DHT22;52211;50.154;8.682;2023-02-24T03:53:22;11.80;62.90
65568;DHT22;52211;50.154;8.682;2023-02-24T04:04:24;11.80;62.80
65568;DHT22;52211;50.154;8.682;2023-02-24T04:07:36;11.80;62.90
65568;DHT22;52211;50.154;8.682;2023-02-24T04:12:59;11.80;63.00
65568;DHT22;52211;50.154;8.682;2023-02-24T04:15:40;11.80;63.10
65568;DHT22;52211;50.154;8.682;2023-02-24T04:18:23;11.70;63.10
65568;DHT22;52211;50.154;8.682;2023-02-24T04:20:58;11.80;63.10
65568;DHT22;52211;50.154;8.682;2023-02-24T04:23:39;11.80;63.10
65568;DHT22;52211;50.154;8.682;2023-02-24T04:26:14;11.80;63.10
65568;DHT22;52211;50.154;8.682;2023-02-24T04:28:46;11.80;63.00
65568;DHT22;52211;50.154;8.682;2023-02-24T04:31:18;11.80;62.90
65568;DHT22;52211;50.154;8.682;2023-02-24T04:33:54;11.70;62.90
65568;DHT22;52211;50.154;8.682;2023-02-24T04:36:32;11.70;62.90
65568;DHT22;52211;50.154;8.682;2023-02-24T04:38:59;11.70;62.90
65568;DHT22;52211;50.154;8.682;2023-02-24T04:41:35;11.70;62.80
65568;DHT22;52211;50.154;8.682;2023-02-24T04:44:04;11.70;62.80
65568;DHT22;52211;50.154;8.682;2023-02-24T04:46:31;11.70;62.80
65568;DHT22;52211;50.154;8.682;2023-02-24T04:48:58;11.60;62.70
65568;DHT22;52211;50.154;8.682;2023-02-24T04:51:30;11.60;62.70
65568;DHT22;52211;50.154;8.682;2023-02-24T04:53:59;11.60;62.70
65568;DHT22;52211;50.154;8.682;2023-02-24T04:56:30;11.60;62.80
65568;DHT22;52211;50.154;8.682;2023-02-24T04:59:02;11.50;62.70
65568;DHT22;52211;50.154;8.682;2023-02-24T05:01:37;11.50;62.70
65568;DHT22;52211;50.154;8.682;2023-02-24T05:04:14;11.50;62.80
65568;DHT22;52211;50.154;8.682;2023-02-24T05:06:41;11.40;62.80
65568;DHT22;52211;50.154;8.682;2023-02-24T05:09:15;11.40;62.80
65568;DHT22;52211;50.154;8.682;2023-02-24T05:11:47;11.40;62.90
65568;DHT22;52211;50.154;8.682;2023-02-24T05:14:19;11.40;63.00
65568;DHT22;52211;50.154;8.682;2023-02-24T05:16:52;11.40;63.00
65568;DHT22;52211;50.154;8.682;2023-02-24T05:19:25;11.40;63.00
65568;DHT22;52211;50.154;8.682;2023-02-24T05:22:15;11.40;62.90
65568;DHT22;52211;50.154;8.682;2023-02-24T05:24:45;11.40;62.90
65568;DHT22;52211;50.154;8.682;2023-02-24T05:27:15;11.30;62.70
65568;DHT22;52211;50.154;8.682;2023-02-24T05:29:44;11.30;62.70
65568;DHT22;52211;50.154;8.682;2023-02-24T05:32:14;11.30;62.80
65568;DHT22;52211;50.154;8.682;2023-02-24T05:34:47;11.20;62.80
65568;DHT22;52211;50.154;8.682;2023-02-24T05:37:13;11.20;62.80
65568;DHT22;52211;50.154;8.682;2023-02-24T05:39:46;11.20;62.90
65568;DHT22;52211;50.154;8.682;2023-02-24T05:42:13;11.20;63.00
65568;DHT22;52211;50.154;8.682;2023-02-24T05:44:43;11.20;63.00
65568;DHT22;52211;50.154;8.682;2023-02-24T05:47:12;11.20;63.00
65568;DHT22;52211;50.154;8.682;2023-02-24T05:49:39;11.20;63.00
65568;DHT22;52211;50.154;8.682;2023-02-24T05:52:13;11.10;62.90
65568;DHT22;52211;50.154;8.682;2023-02-24T05:54:48;11.10;62.90
65568;DHT22;52211;50.154;8.682;2023-02-24T05:57:20;11.10;63.00
65568;DHT22;52211;50.154;8.682;2023-02-24T05:59:52;11.10;63.00
65568;DHT22;52211;50.154;8.682;2023-02-24T06:02:23;11.10;63.00
65568;DHT22;52211;50.154;8.682;2023-02-24T06:04:53;11.10;63.00
65568;DHT22;52211;50.154;8.682;2023-02-24T06:07:28;11.10;63.10
65568;DHT22;52211;50.154;8.682;2023-02-24T06:10:02;11.20;63.10
65568;DHT22;52211;50.154;8.682;2023-02-24T06:12:35;11.20;63.20
65568;DHT22;52211;50.154;8.682;2023-02-24T06:15:05;11.20;63.20
65568;DHT22;52211;50.154;8.682;2023-02-24T06:17:33;11.20;63.20
65568;DHT22;52211;50.154;8.682;2023-02-24T06:20:00;11.20;63.20
65568;DHT22;52211;50.154;8.682;2023-02-24T06:22:29;11.20;63.10
65568;DHT22;52211;50.154;8.682;2023-02-24T06:25:10;11.20;63.20
65568;DHT22;52211;50.154;8.682;2023-02-24T06:27:37;11.20;63.20
65568;DHT22;52211;50.154;8.682;2023-02-24T06:30:09;11.20;63.10
65568;DHT22;52211;50.154;8.682;2023-02-24T06:32:42;11.20;63.20
65568;DHT22;52211;50.154;8.682;2023-02-24T06:35:14;11.20;63.20
65568;DHT22;52211;50.154;8.682;2023-02-24T06:37:46;11.20;63.20
65568;DHT22;52211;50.154;8.682;2023-02-24T06:40:16;11.30;63.20
65568;DHT22;52211;50.154;8.682;2023-02-24T06:42:47;11.30;63.20
65568;DHT22;52211;50.154;8.682;2023-02-24T06:45:20;11.30;63.20
65568;DHT22;52211;50.154;8.682;2023-02-24T06:47:50;11.30;63.20
65568;DHT22;52211;50.154;8.682;2023-02-24T06:50:18;11.30;63.20
65568;DHT22;52211;50.154;8.682;2023-02-24T06:52:49;11.30;63.20
65568;DHT22;52211;50.154;8.682;2023-02-24T06:55:21;11.30;63.80
65568;DHT22;52211;50.154;8.682;2023-02-24T06:57:58;11.30;63.20
65568;DHT22;52211;50.154;8.682;2023-02-24T07:00:32;11.30;63.20
65568;DHT22;52211;50.154;8.682;2023-02-24T07:03:16;11.40;63.30
65568;DHT22;52211;50.154;8.682;2023-02-24T07:05:48;11.40;63.20
65568;DHT22;52211;50.154;8.682;2023-02-24T07:08:24;11.40;63.20
65568;DHT22;52211;50.154;8.682;2023-02-24T07:10:56;11.40;63.10
65568;DHT22;52211;50.154;8.682;2023-02-24T07:13:26;11.40;63.10
65568;DHT22;52211;50.154;8.682;2023-02-24T07:15:59;11.40;63.10
65568;DHT22;52211;50.154;8.682;2023-02-24T07:18:33;11.40;63.00
65568;DHT22;52211;50.154;8.682;2023-02-24T07:21:06;11.40;62.90
65568;DHT22;52211;50.154;8.682;2023-02-24T07:23:43;11.50;63.50
65568;DHT22;52211;50.154;8.682;2023-02-24T07:26:13;11.50;62.90
65568;DHT22;52211;50.154;8.682;2023-02-24T07:28:45;11.50;62.90
65568;DHT22;52211;50.154;8.682;2023-02-24T07:31:17;11.50;62.90
65568;DHT22;52211;50.154;8.682;2023-02-24T07:33:47;11.50;62.80
65568;DHT22;52211;50.154;8.682;2023-02-24T07:36:17;11.50;62.80
65568;DHT22;52211;50.154;8.682;2023-02-24T07:38:53;11.50;62.70
65568;DHT22;52211;50.154;8.682;2023-02-24T07:41:21;11.50;62.60
65568;DHT22;52211;50.154;8.682;2023-02-24T07:43:53;11.50;62.50
65568;DHT22;52211;50.154;8.682;2023-02-24T07:46:27;11.50;62.50
65568;DHT22;52211;50.154;8.682;2023-02-24T07:48:57;11.40;62.50
65568;DHT22;52211;50.154;8.682;2023-02-24T07:51:35;11.40;62.50
65568;DHT22;52211;50.154;8.682;2023-02-24T07:54:09;11.40;62.50
65568;DHT22;52211;50.154;8.682;2023-02-24T07:56:37;11.50;62.50
65568;DHT22;52211;50.154;8.682;2023-02-24T07:59:25;11.50;62.60
65568;DHT22;52211;50.154;8.682;2023-02-24T08:01:54;11.50;62.50
65568;DHT22;52211;50.154;8.682;2023-02-24T08:04:25;11.50;62.60
65568;DHT22;52211;50.154;8.682;2023-02-24T08:06:56;11.50;62.50
65568;DHT22;52211;50.154;8.682;2023-02-24T08:09:27;11.50;62.50
65568;DHT22;52211;50.154;8.682;2023-02-24T08:12:20;11.60;62.60
65568;DHT22;52211;50.154;8.682;2023-02-24T08:14:53;11.60;62.60
65568;DHT22;52211;50.154;8.682;2023-02-24T08:17:26;11.60;62.40
65568;DHT22;52211;50.154;8.682;2023-02-24T08:19:54;11.60;62.30
65568;DHT22;52211;50.154;8.682;2023-02-24T08:22:44;11.70;62.30
65568;DHT22;52211;50.154;8.682;2023-02-24T08:25:25;11.70;62.20
65568;DHT22;52211;50.154;8.682;2023-02-24T08:28:08;11.70;62.20
65568;DHT22;52211;50.154;8.682;2023-02-24T08:30:42;11.70;62.20
65568;DHT22;52211;50.154;8.682;2023-02-24T08:33:18;11.70;62.10
65568;DHT22;52211;50.154;8.682;2023-02-24T08:35:54;11.70;62.00
65568;DHT22;52211;50.154;8.682;2023-02-24T08:38:35;11.80;62.00
65568;DHT22;52211;50.154;8.682;2023-02-24T08:41:14;11.80;61.90
65568;DHT22;52211;50.154;8.682;2023-02-24T08:43:49;11.80;61.90
65568;DHT22;52211;50.154;8.682;2023-02-24T08:46:20;11.90;61.90
65568;DHT22;52211;50.154;8.682;2023-02-24T08:48:57;11.90;61.80
65568;DHT22;52211;50.154;8.682;2023-02-24T08:51:35;11.80;61.70
65568;DHT22;52211;50.154;8.682;2023-02-24T08:54:16;11.90;61.50
65568;DHT22;52211;50.154;8.682;2023-02-24T08:56:54;11.90;61.50
65568;DHT22;52211;50.154;8.682;2023-02-24T08:59:24;11.90;61.60
65568;DHT22;52211;50.154;8.682;2023-02-24T09:02:15;12.00;61.70
65568;DHT22;52211;50.154;8.682;2023-02-24T09:04:47;12.00;61.20
65568;DHT22;52211;50.154;8.682;2023-02-24T09:07:23;12.00;61.50
65568;DHT22;52211;50.154;8.682;2023-02-24T09:09:53;12.00;61.30
65568;DHT22;52211;50.154;8.682;2023-02-24T09:12:30;12.10;61.30
65568;DHT22;52211;50.154;8.682;2023-02-24T09:15:00;12.10;61.30
65568;DHT22;52211;50.154;8.682;2023-02-24T09:17:33;12.10;61.30
65568;DHT22;52211;50.154;8.682;2023-02-24T09:20:08;12.10;61.10
65568;DHT22;52211;50.154;8.682;2023-02-24T09:22:58;12.10;60.90
65568;DHT22;52211;50.154;8.682;2023-02-24T09:25:38;12.20;60.90
65568;DHT22;52211;50.154;8.682;2023-02-24T09:28:18;12.20;60.80
65568;DHT22;52211;50.154;8.682;2023-02-24T09:30:58;12.10;60.50
65568;DHT22;52211;50.154;8.682;2023-02-24T09:33:35;12.10;60.60
65568;DHT22;52211;50.154;8.682;2023-02-24T09:36:18;12.20;60.60
65568;DHT22;52211;50.154;8.682;2023-02-24T09:38:57;12.20;60.60
65568;DHT22;52211;50.154;8.682;2023-02-24T09:41:35;12.20;60.40
65568;DHT22;52211;50.154;8.682;2023-02-24T09:44:33;12.20;60.40
65568;DHT22;52211;50.154;8.682;2023-02-24T09:50:02;12.30;60.30
65568;DHT22;52211;50.154;8.682;2023-02-24T09:52:42;12.30;59.70
65568;DHT22;52211;50.154;8.682;2023-02-24T10:06:20;12.50;59.80
65568;DHT22;52211;50.154;8.682;2023-02-24T10:08:56;12.50;59.50
65568;DHT22;52211;50.154;8.682;2023-02-24T10:11:43;12.50;59.40
65568;DHT22;52211;50.154;8.682;2023-02-24T10:14:52;12.50;59.30
65568;DHT22;52211;50.154;8.682;2023-02-24T10:17:53;12.50;59.50
65568;DHT22;52211;50.154;8.682;2023-02-24T10:20:38;12.60;59.90
65568;DHT22;52211;50.154;8.682;2023-02-24T10:26:00;12.80;60.20
65568;DHT22;52211;50.154;8.682;2023-02-24T10:32:19;12.90;59.20
65568;DHT22;52211;50.154;8.682;2023-02-24T10:35:00;12.90;59.10
65568;DHT22;52211;50.154;8.682;2023-02-24T10:37:28;13.00;59.30
65568;DHT22;52211;50.154;8.682;2023-02-24T10:40:05;13.10;59.00
65568;DHT22;52211;50.154;8.682;2023-02-24T10:42:41;13.20;58.60
65568;DHT22;52211;50.154;8.682;2023-02-24T10:47:57;13.20;58.60
65568;DHT22;52211;50.154;8.682;2023-02-24T10:50:38;13.20;58.20
65568;DHT22;52211;50.154;8.682;2023-02-24T10:53:27;13.20;58.10
65568;DHT22;52211;50.154;8.682;2023-02-24T10:56:11;13.20;58.00
65568;DHT22;52211;50.154;8.682;2023-02-24T10:59:13;13.20;58.80
65568;DHT22;52211;50.154;8.682;2023-02-24T11:02:24;13.20;58.00
65568;DHT22;52211;50.154;8.682;2023-02-24T11:04:57;13.30;57.70
65568;DHT22;52211;50.154;8.682;2023-02-24T11:08:11;13.30;58.40
65568;DHT22;52211;50.154;8.682;2023-02-24T11:11:06;13.40;58.00
65568;DHT22;52211;50.154;8.682;2023-02-24T11:13:52;13.40;57.90
65568;DHT22;52211;50.154;8.682;2023-02-24T11:16:52;13.40;57.50
65568;DHT22;52211;50.154;8.682;2023-02-24T11:22:34;13.40;57.20
65568;DHT22;52211;50.154;8.682;2023-02-24T11:25:12;13.30;56.60
65568;DHT22;52211;50.154;8.682;2023-02-24T11:27:46;13.40;57.20
65568;DHT22;52211;50.154;8.682;2023-02-24T11:33:39;13.40;57.10
65568;DHT22;52211;50.154;8.682;2023-02-24T11:36:29;13.50;56.90
65568;DHT22;52211;50.154;8.682;2023-02-24T11:42:15;13.50;55.70
65568;DHT22;52211;50.154;8.682;2023-02-24T11:48:40;13.50;55.40
65568;DHT22;52211;50.154;8.682;2023-02-24T11:51:16;13.50;56.10
65568;DHT22;52211;50.154;8.682;2023-02-24T11:53:50;13.60;56.10
65568;DHT22;52211;50.154;8.682;2023-02-24T11:56:44;13.70;55.70
65568;DHT22;52211;50.154;8.682;2023-02-24T11:59:36;13.70;55.10
65568;DHT22;52211;50.154;8.682;2023-02-24T12:05:34;13.70;54.90
65568;DHT22;52211;50.154;8.682;2023-02-24T12:10:49;13.60;54.60
65568;DHT22;52211;50.154;8.682;2023-02-24T12:13:38;13.50;54.80
65568;DHT22;52211;50.154;8.682;2023-02-24T12:16:19;13.50;54.40
65568;DHT22;52211;50.154;8.682;2023-02-24T12:19:18;13.40;54.30
65568;DHT22;52211;50.154;8.682;2023-02-24T12:21:54;13.30;54.70
65568;DHT22;52211;50.154;8.682;2023-02-24T12:24:31;13.30;54.80
65568;DHT22;52211;50.154;8.682;2023-02-24T12:30:02;13.30;54.40
65568;DHT22;52211;50.154;8.682;2023-02-24T12:38:56;13.20;54.60
65568;DHT22;52211;50.154;8.682;2023-02-24T12:44:48;13.00;54.40
65568;DHT22;52211;50.154;8.682;2023-02-24T12:53:22;13.00;54.70
65568;DHT22;52211;50.154;8.682;2023-02-24T12:56:32;13.00;55.00
65568;DHT22;52211;50.154;8.682;2023-02-24T12:59:16;13.00;55.00
65568;DHT22;52211;50.154;8.682;2023-02-24T13:01:54;13.00;54.60
65568;DHT22;52211;50.154;8.682;2023-02-24T13:10:44;13.00;54.40
65568;DHT22;52211;50.154;8.682;2023-02-24T13:13:43;12.90;54.30
65568;DHT22;52211;50.154;8.682;2023-02-24T13:16:28;12.90;54.40
65568;DHT22;52211;50.154;8.682;2023-02-24T13:19:04;12.90;54.70
65568;DHT22;52211;50.154;8.682;2023-02-24T13:27:22;12.80;54.50
65568;DHT22;52211;50.154;8.682;2023-02-24T13:32:40;12.80;54.70
65568;DHT22;52211;50.154;8.682;2023-02-24T13:37:46;12.70;54.70
65568;DHT22;52211;50.154;8.682;2023-02-24T13:40:21;12.80;54.90
65568;DHT22;52211;50.154;8.682;2023-02-24T13:45:35;12.70;54.80
65568;DHT22;52211;50.154;8.682;2023-02-24T14:02:41;12.60;54.40
65568;DHT22;52211;50.154;8.682;2023-02-24T14:05:22;12.60;54.70
65568;DHT22;52211;50.154;8.682;2023-02-24T14:07:54;12.50;54.50
65568;DHT22;52211;50.154;8.682;2023-02-24T14:10:26;12.50;54.90
65568;DHT22;52211;50.154;8.682;2023-02-24T14:15:45;12.40;54.50
65568;DHT22;52211;50.154;8.682;2023-02-24T14:18:24;12.40;54.50
65568;DHT22;52211;50.154;8.682;2023-02-24T14:20:56;12.40;54.70
65568;DHT22;52211;50.154;8.682;2023-02-24T14:23:29;12.30;54.70
65568;DHT22;52211;50.154;8.682;2023-02-24T14:26:12;12.20;54.80
65568;DHT22;52211;50.154;8.682;2023-02-24T14:28:58;12.20;54.80
65568;DHT22;52211;50.154;8.682;2023-02-24T14:31:27;12.20;54.80
65568;DHT22;52211;50.154;8.682;2023-02-24T14:34:04;12.10;54.80
65568;DHT22;52211;50.154;8.682;2023-02-24T14:36:42;12.10;54.80
65568;DHT22;52211;50.154;8.682;2023-02-24T14:44:48;12.00;54.70
65568;DHT22;52211;50.154;8.682;2023-02-24T14:47:21;12.00;54.60
65568;DHT22;52211;50.154;8.682;2023-02-24T14:50:01;11.90;54.60
65568;DHT22;52211;50.154;8.682;2023-02-24T14:52:52;11.90;54.60
65568;DHT22;52211;50.154;8.682;2023-02-24T14:55:40;11.90;54.70
65568;DHT22;52211;50.154;8.682;2023-02-24T14:58:18;11.80;54.80
65568;DHT22;52211;50.154;8.682;2023-02-24T15:01:06;11.80;55.00
65568;DHT22;52211;50.154;8.682;2023-02-24T15:03:56;11.80;54.70
65568;DHT22;52211;50.154;8.682;2023-02-24T15:06:28;11.70;54.90
65568;DHT22;52211;50.154;8.682;2023-02-24T15:11:30;11.70;55.10
65568;DHT22;52211;50.154;8.682;2023-02-24T15:14:04;11.80;55.30
65568;DHT22;52211;50.154;8.682;2023-02-24T15:16:46;11.80;55.20
65568;DHT22;52211;50.154;8.682;2023-02-24T15:22:04;11.70;54.70
65568;DHT22;52211;50.154;8.682;2023-02-24T15:24:43;11.70;54.90
65568;DHT22;52211;50.154;8.682;2023-02-24T15:29:43;11.60;54.40
65568;DHT22;52211;50.154;8.682;2023-02-24T15:32:25;11.60;54.50
65568;DHT22;52211;50.154;8.682;2023-02-24T15:34:54;11.50;54.40
65568;DHT22;52211;50.154;8.682;2023-02-24T15:37:27;11.50;54.50
65568;DHT22;52211;50.154;8.682;2023-02-24T15:40:19;11.50;54.50
65568;DHT22;52211;50.154;8.682;2023-02-24T15:45:29;11.40;54.60
65568;DHT22;52211;50.154;8.682;2023-02-24T15:48:00;11.40;54.70
65568;DHT22;52211;50.154;8.682;2023-02-24T15:50:32;11.40;54.70
65568;DHT22;52211;50.154;8.682;2023-02-24T15:53:00;11.30;54.50
65568;DHT22;52211;50.154;8.682;2023-02-24T15:55:40;11.30;54.40
65568;DHT22;52211;50.154;8.682;2023-02-24T15:58:19;11.30;54.50
65568;DHT22;52211;50.154;8.682;2023-02-24T16:00:52;11.20;54.20
65568;DHT22;52211;50.154;8.682;2023-02-24T16:03:22;11.20;54.50
65568;DHT22;52211;50.154;8.682;2023-02-24T16:05:54;11.20;54.60
65568;DHT22;52211;50.154;8.682;2023-02-24T16:08:23;11.20;54.40
65568;DHT22;52211;50.154;8.682;2023-02-24T16:10:52;11.20;54.50
65568;DHT22;52211;50.154;8.682;2023-02-24T16:13:22;11.20;54.60
65568;DHT22;52211;50.154;8.682;2023-02-24T16:15:51;11.20;54.30
65568;DHT22;52211;50.154;8.682;2023-02-24T16:18:25;11.10;54.40
65568;DHT22;52211;50.154;8.682;2023-02-24T16:20:54;11.20;54.50
65568;DHT22;52211;50.154;8.682;2023-02-24T16:23:24;11.10;54.50
65568;DHT22;52211;50.154;8.682;2023-02-24T16:25:56;11.10;54.60
65568;DHT22;52211;50.154;8.682;2023-02-24T16:28:25;11.10;54.70
65568;DHT22;52211;50.154;8.682;2023-02-24T16:30:56;11.10;54.60
65568;DHT22;52211;50.154;8.682;2023-02-24T16:33:23;11.00;54.70
65568;DHT22;52211;50.154;8.682;2023-02-24T16:35:53;11.00;54.70
65568;DHT22;52211;50.154;8.682;2023-02-24T16:38:25;10.90;54.70
65568;DHT22;52211;50.154;8.682;2023-02-24T16:40:57;10.90;54.90
65568;DHT22;52211;50.154;8.682;2023-02-24T16:43:27;10.80;54.80
65568;DHT22;52211;50.154;8.682;2023-02-24T16:46:01;10.70;55.00
65568;DHT22;52211;50.154;8.682;2023-02-24T16:48:34;10.60;55.00
65568;DHT22;52211;50.154;8.682;2023-02-24T16:51:07;10.50;55.00
65568;DHT22;52211;50.154;8.682;2023-02-24T16:53:36;10.40;55.10
65568;DHT22;52211;50.154;8.682;2023-02-24T16:56:06;10.40;55.20
65568;DHT22;52211;50.154;8.682;2023-02-24T16:58:34;10.20;55.30
65568;DHT22;52211;50.154;8.682;2023-02-24T17:01:03;10.20;55.40
65568;DHT22;52211;50.154;8.682;2023-02-24T17:03:40;10.10;55.60
65568;DHT22;52211;50.154;8.682;2023-02-24T17:06:16;10.00;55.70
65568;DHT22;52211;50.154;8.682;2023-02-24T17:08:50;9.90;55.70
65568;DHT22;52211;50.154;8.682;2023-02-24T17:11:25;9.90;55.90
65568;DHT22;52211;50.154;8.682;2023-02-24T17:13:58;9.80;56.00
65568;DHT22;52211;50.154;8.682;2023-02-24T17:16:27;9.70;56.10
65568;DHT22;52211;50.154;8.682;2023-02-24T17:18:54;9.60;56.20
65568;DHT22;52211;50.154;8.682;2023-02-24T17:21:24;9.60;56.40
65568;DHT22;52211;50.154;8.682;2023-02-24T17:23:53;9.50;56.50
65568;DHT22;52211;50.154;8.682;2023-02-24T17:26:24;9.50;56.60
65568;DHT22;52211;50.154;8.682;2023-02-24T17:28:51;9.40;56.50
65568;DHT22;52211;50.154;8.682;2023-02-24T17:31:18;9.40;56.60
65568;DHT22;52211;50.154;8.682;2023-02-24T17:33:50;9.30;56.70
65568;DHT22;52211;50.154;8.682;2023-02-24T17:36:22;9.30;56.80
65568;DHT22;52211;50.154;8.682;2023-02-24T17:38:50;9.20;56.80
65568;DHT22;52211;50.154;8.682;2023-02-24T17:41:17;9.20;56.90
65568;DHT22;52211;50.154;8.682;2023-02-24T17:43:52;9.20;57.10
65568;DHT22;52211;50.154;8.682;2023-02-24T17:46:19;9.10;57.30
65568;DHT22;52211;50.154;8.682;2023-02-24T17:48:50;9.10;57.30
65568;DHT22;52211;50.154;8.682;2023-02-24T17:51:19;9.10;57.40
65568;DHT22;52211;50.154;8.682;2023-02-24T17:53:47;9.10;57.30
65568;DHT22;52211;50.154;8.682;2023-02-24T17:56:15;9.00;57.30
65568;DHT22;52211;50.154;8.682;2023-02-24T17:58:44;8.90;57.30
65568;DHT22;52211;50.154;8.682;2023-02-24T18:01:11;9.00;57.60
65568;DHT22;52211;50.154;8.682;2023-02-24T18:03:42;8.90;57.60
65568;DHT22;52211;50.154;8.682;2023-02-24T18:06:13;8.90;57.70
65568;DHT22;52211;50.154;8.682;2023-02-24T18:08:45;8.90;57.80
65568;DHT22;52211;50.154;8.682;2023-02-24T18:11:17;8.90;57.70
65568;DHT22;52211;50.154;8.682;2023-02-24T18:13:46;8.80;57.80
65568;DHT22;52211;50.154;8.682;2023-02-24T18:16:16;8.80;57.90
65568;DHT22;52211;50.154;8.682;2023-02-24T18:18:46;8.80;58.00
65568;DHT22;52211;50.154;8.682;2023-02-24T18:21:13;8.80;58.10
65568;DHT22;52211;50.154;8.682;2023-02-24T18:23:40;8.80;58.10
65568;DHT22;52211;50.154;8.682;2023-02-24T18:26:09;8.80;58.20
65568;DHT22;52211;50.154;8.682;2023-02-24T18:28:41;8.70;58.20
65568;DHT22;52211;50.154;8.682;2023-02-24T18:31:11;8.70;58.30
65568;DHT22;52211;50.154;8.682;2023-02-24T18:33:40;8.70;58.30
65568;DHT22;52211;50.154;8.682;2023-02-24T18:36:08;8.70;58.40
65568;DHT22;52211;50.154;8.682;2023-02-24T18:38:36;8.70;58.40
65568;DHT22;52211;50.154;8.682;2023-02-24T18:41:07;8.60;58.30
65568;DHT22;52211;50.154;8.682;2023-02-24T18:43:43;8.60;58.50
65568;DHT22;52211;50.154;8.682;2023-02-24T18:46:14;8.60;58.50
65568;DHT22;52211;50.154;8.682;2023-02-24T18:48:46;8.60;58.50
65568;DHT22;52211;50.154;8.682;2023-02-24T18:51:18;8.60;58.60
65568;DHT22;52211;50.154;8.682;2023-02-24T18:53:51;8.60;58.70